createdAt,value
2019-01-18T00:01:40.122Z,41.80
2019-01-18T00:04:10.136Z,41.60
2019-01-18T00:06:39.979Z,41.60
2019-01-18T00:09:09.744Z,41.30
2019-01-18T00:11:39.463Z,41.30
2019-01-18T00:14:09.495Z,41.50
2019-01-18T00:16:39.278Z,41.50
2019-01-18T00:19:09.318Z,41.50
2019-01-18T00:21:39.109Z,41.50
2019-01-18T00:24:08.726Z,41.60
2019-01-18T00:26:38.447Z,41.60
2019-01-18T00:29:08.179Z,41.60
2019-01-18T00:31:37.974Z,41.60
2019-01-18T00:34:07.827Z,41.80
2019-01-18T00:36:37.588Z,41.80
2019-01-18T00:39:08.230Z,41.60
2019-01-18T00:41:38.026Z,41.60
2019-01-18T00:44:07.923Z,41.80
2019-01-18T00:46:37.642Z,41.80
2019-01-18T00:49:07.467Z,41.90
2019-01-18T00:51:37.198Z,41.80
2019-01-18T00:54:07.025Z,41.80
2019-01-18T00:56:37.030Z,41.90
2019-01-18T00:59:07.237Z,41.80
2019-01-18T01:01:37.046Z,41.90
2019-01-18T01:04:06.910Z,41.80
2019-01-18T01:06:36.724Z,41.80
2019-01-18T01:09:06.791Z,41.50
2019-01-18T01:11:36.539Z,41.50
2019-01-18T01:14:06.310Z,41.80
2019-01-18T01:16:36.189Z,41.80
2019-01-18T01:19:05.953Z,41.50
2019-01-18T01:21:36.261Z,41.80
2019-01-18T01:24:05.892Z,41.80
2019-01-18T01:26:35.678Z,41.80
2019-01-18T01:29:05.436Z,41.80
2019-01-18T01:31:35.414Z,41.90
2019-01-18T01:34:05.298Z,41.90
2019-01-18T01:36:35.069Z,42.10
2019-01-18T01:39:08.466Z,42.10
2019-01-18T01:41:38.338Z,42.20
2019-01-18T01:44:08.053Z,42.20
2019-01-18T01:46:37.914Z,42.20
2019-01-18T01:49:07.809Z,42.20
2019-01-18T01:51:37.702Z,42.20
2019-01-18T01:54:07.915Z,42.40
2019-01-18T01:56:37.739Z,42.40
2019-01-18T01:59:07.634Z,42.20
2019-01-18T02:01:37.274Z,42.20
2019-01-18T02:04:07.171Z,42.20
2019-01-18T02:06:37.066Z,42.20
2019-01-18T02:09:07.234Z,42.40
2019-01-18T02:11:37.062Z,42.20
2019-01-18T02:14:06.955Z,42.20
2019-01-18T02:16:37.246Z,42.20
2019-01-18T02:19:06.979Z,42.20
2019-01-18T02:21:36.961Z,42.20
2019-01-18T02:24:06.839Z,42.20
2019-01-18T02:26:36.573Z,42.20
2019-01-18T02:29:06.447Z,42.20
2019-01-18T02:31:36.279Z,42.10
2019-01-18T02:34:06.434Z,42.10
2019-01-18T02:36:36.450Z,42.10
2019-01-18T02:39:06.845Z,42.10
2019-01-18T02:41:36.701Z,42.10
2019-01-18T02:44:07.019Z,42.10
2019-01-18T02:46:36.956Z,42.10
2019-01-18T02:49:06.759Z,42.10
2019-01-18T02:51:36.724Z,42.10
2019-01-18T02:54:06.989Z,42.10
2019-01-18T02:56:37.112Z,42.10
2019-01-18T02:59:06.970Z,42.10
2019-01-18T03:01:36.760Z,42.10
2019-01-18T03:04:06.658Z,42.10
2019-01-18T03:06:36.388Z,42.10
2019-01-18T03:09:07.770Z,42.10
2019-01-18T03:11:37.557Z,41.90
2019-01-18T03:14:07.426Z,41.90
2019-01-18T03:16:37.352Z,41.80
2019-01-18T03:19:07.556Z,41.80
2019-01-18T03:21:37.308Z,41.80
2019-01-18T03:24:07.233Z,41.80
2019-01-18T03:26:37.000Z,41.80
2019-01-18T03:29:06.624Z,41.60
2019-01-18T03:31:36.329Z,41.60
2019-01-18T03:34:06.538Z,41.60
2019-01-18T03:36:36.285Z,41.60
2019-01-18T03:39:09.825Z,41.60
2019-01-18T03:41:39.670Z,41.60
2019-01-18T03:44:09.439Z,41.60
2019-01-18T03:46:39.179Z,41.60
2019-01-18T03:49:08.975Z,41.60
2019-01-18T03:51:38.676Z,41.50
2019-01-18T03:54:08.815Z,41.50
2019-01-18T03:56:38.618Z,41.50
2019-01-18T03:59:08.550Z,41.50
2019-01-18T04:01:38.510Z,41.50
2019-01-18T04:04:08.379Z,41.50
2019-01-18T04:06:38.278Z,41.50
2019-01-18T04:09:08.616Z,41.50
2019-01-18T04:11:38.359Z,41.50
2019-01-18T04:14:08.288Z,41.50
2019-01-18T04:16:38.549Z,41.50
2019-01-18T04:19:08.345Z,41.50
2019-01-18T04:21:38.172Z,41.50
2019-01-18T04:24:08.003Z,41.30
2019-01-18T04:26:37.858Z,41.50
2019-01-18T04:29:07.821Z,41.50
2019-01-18T04:31:37.531Z,41.50
2019-01-18T04:34:07.448Z,41.30
2019-01-18T04:36:37.286Z,41.30
2019-01-18T04:39:07.157Z,41.30
2019-01-18T04:41:36.757Z,41.30
2019-01-18T04:44:06.585Z,41.30
2019-01-18T04:46:36.401Z,41.30
2019-01-18T04:49:06.297Z,41.30
2019-01-18T04:51:36.642Z,41.30
2019-01-18T04:54:07.009Z,41.20
2019-01-18T04:56:36.766Z,41.20
2019-01-18T04:59:06.393Z,41.20
2019-01-18T05:01:36.346Z,41.20
2019-01-18T05:04:05.953Z,41.20
2019-01-18T05:06:35.975Z,41.20
2019-01-18T05:09:07.385Z,41.20
2019-01-18T05:11:37.273Z,41.20
2019-01-18T05:14:07.305Z,41.20
2019-01-18T05:16:37.160Z,41.20
2019-01-18T05:19:07.864Z,41.20
2019-01-18T05:21:37.879Z,41.00
2019-01-18T05:24:07.684Z,40.90
2019-01-18T05:26:37.311Z,40.90
2019-01-18T05:29:07.189Z,40.90
2019-01-18T05:31:36.987Z,40.70
2019-01-18T05:34:07.060Z,40.70
2019-01-18T05:36:37.373Z,40.70
2019-01-18T05:39:07.511Z,40.60
2019-01-18T05:41:37.146Z,40.60
2019-01-18T05:44:07.416Z,40.60
2019-01-18T05:46:37.686Z,40.60
2019-01-18T05:49:07.499Z,40.50
2019-01-18T05:51:37.106Z,40.50
2019-01-18T05:54:07.177Z,40.50
2019-01-18T05:56:36.800Z,40.50
2019-01-18T05:59:06.690Z,40.50
2019-01-18T06:01:36.810Z,40.30
2019-01-18T06:04:06.701Z,40.20
2019-01-18T06:06:36.956Z,40.30
2019-01-18T06:09:07.911Z,40.20
2019-01-18T06:11:37.905Z,40.20
2019-01-18T06:14:08.238Z,40.00
2019-01-18T06:16:37.922Z,40.00
2019-01-18T06:19:07.642Z,39.90
2019-01-18T06:21:37.903Z,39.70
2019-01-18T06:24:07.607Z,39.90
2019-01-18T06:26:37.554Z,39.70
2019-01-18T06:29:07.385Z,39.70
2019-01-18T06:31:37.205Z,39.70
2019-01-18T06:34:07.160Z,39.70
2019-01-18T06:36:37.285Z,39.70
2019-01-18T06:39:07.583Z,39.60
2019-01-18T06:41:37.686Z,39.40
2019-01-18T06:44:07.400Z,39.40
2019-01-18T06:46:37.523Z,39.40
2019-01-18T06:49:08.091Z,39.40
2019-01-18T06:51:38.231Z,39.40
2019-01-18T06:54:08.691Z,39.40
2019-01-18T06:56:38.508Z,39.30
2019-01-18T06:59:08.476Z,39.30
2019-01-18T07:01:38.115Z,39.30
2019-01-18T07:04:07.975Z,56.60
2019-01-18T07:06:38.153Z,47.10
2019-01-18T07:09:08.585Z,45.30
2019-01-18T07:11:38.369Z,44.30
2019-01-18T07:14:08.657Z,43.30
2019-01-18T07:16:38.464Z,42.70
2019-01-18T07:19:08.787Z,42.10
2019-01-18T07:21:38.937Z,41.60
2019-01-18T07:24:09.367Z,41.30
2019-01-18T07:26:39.095Z,41.00
2019-01-18T07:29:09.006Z,40.70
2019-01-18T07:31:38.786Z,40.60
2019-01-18T07:34:09.187Z,40.50
2019-01-18T07:36:58.433Z,40.30
2019-01-18T07:39:28.463Z,40.20
2019-01-18T07:41:58.250Z,40.00
2019-01-18T07:44:28.336Z,40.50
2019-01-18T07:46:58.223Z,41.20
2019-01-18T07:49:28.208Z,40.90
2019-01-18T07:51:57.991Z,40.60
2019-01-18T07:54:28.056Z,40.30
2019-01-18T07:56:57.900Z,40.20
2019-01-18T07:59:27.865Z,40.00
2019-01-18T08:01:57.700Z,39.70
2019-01-18T08:04:27.407Z,39.60
2019-01-18T08:06:57.834Z,39.30
2019-01-18T08:09:27.779Z,39.30
2019-01-18T08:11:57.717Z,64.90
2019-01-18T08:14:27.720Z,64.90
2019-01-18T08:16:57.386Z,60.10
2019-01-18T08:19:27.345Z,56.40
2019-01-18T08:21:57.082Z,53.60
2019-01-18T08:24:26.725Z,51.40
2019-01-18T08:26:56.590Z,49.60
2019-01-18T08:29:26.530Z,48.00
2019-01-18T08:31:56.533Z,46.70
2019-01-18T08:34:26.321Z,45.50
2019-01-18T08:36:56.406Z,44.60
2019-01-18T08:39:26.313Z,43.90
2019-01-18T08:41:56.221Z,42.80
2019-01-18T08:44:26.090Z,42.40
2019-01-18T08:46:56.095Z,41.80
2019-01-18T08:49:26.165Z,41.20
2019-01-18T08:51:55.970Z,38.70
2019-01-18T08:54:25.861Z,35.00
2019-01-18T08:56:55.897Z,31.70
2019-01-18T08:59:25.695Z,29.40
2019-01-18T09:01:55.725Z,28.00
2019-01-18T09:04:25.835Z,26.10
2019-01-18T09:06:55.893Z,24.80
2019-01-18T09:09:25.651Z,24.20
2019-01-18T09:11:55.375Z,24.10
2019-01-18T09:14:25.160Z,23.70
2019-01-18T09:16:54.979Z,23.60
2019-01-18T09:19:24.659Z,23.20
2019-01-18T09:21:56.858Z,23.20
2019-01-18T09:24:29.356Z,23.20
2019-01-18T09:26:59.291Z,22.90
2019-01-18T09:29:28.909Z,22.70
2019-01-18T09:31:58.916Z,22.40
2019-01-18T09:34:29.090Z,22.30
2019-01-18T09:36:59.184Z,21.90
2019-01-18T09:39:29.362Z,22.00
2019-01-18T09:41:58.970Z,22.20
2019-01-18T09:44:29.117Z,22.20
2019-01-18T09:46:59.063Z,22.00
2019-01-18T09:49:29.023Z,22.00
2019-01-18T09:51:59.053Z,22.10
2019-01-18T09:54:28.952Z,22.20
2019-01-18T09:56:58.825Z,22.00
2019-01-18T09:59:29.005Z,22.00
2019-01-18T10:02:00.478Z,21.90
2019-01-18T10:04:30.085Z,21.60
2019-01-18T10:07:00.338Z,21.20
2019-01-18T10:09:30.211Z,21.40
2019-01-18T10:11:59.997Z,21.40
2019-01-18T10:14:29.670Z,21.20
2019-01-18T10:16:59.410Z,21.10
2019-01-18T10:19:29.013Z,20.80
2019-01-18T10:21:58.729Z,20.70
2019-01-18T10:24:28.541Z,20.40
2019-01-18T10:26:58.362Z,20.10
2019-01-18T10:29:28.360Z,20.20
2019-01-18T10:31:58.055Z,19.80
2019-01-18T10:34:27.757Z,19.70
2019-01-18T10:36:57.466Z,19.60
2019-01-18T10:39:27.092Z,19.60
2019-01-18T10:41:56.846Z,19.50
2019-01-18T10:44:26.502Z,19.40
2019-01-18T10:46:56.203Z,19.20
2019-01-18T10:49:25.866Z,19.00
2019-01-18T10:51:55.612Z,19.10
2019-01-18T10:54:25.259Z,19.60
2019-01-18T10:56:54.899Z,19.70
2019-01-18T10:59:24.612Z,20.00
2019-01-18T11:02:00.648Z,20.10
2019-01-18T11:04:25.675Z,20.30
2019-01-18T11:06:55.422Z,20.40
2019-01-18T11:09:25.081Z,20.50
2019-01-18T11:11:54.853Z,20.40
2019-01-18T11:14:24.546Z,20.40
2019-01-18T11:16:54.258Z,20.40
2019-01-18T11:19:23.995Z,20.30
2019-01-18T11:21:53.690Z,20.30
2019-01-18T11:24:23.465Z,20.30
2019-01-18T11:26:53.134Z,20.30
2019-01-18T11:29:22.915Z,20.30
2019-01-18T11:31:52.700Z,20.20
2019-01-18T11:34:22.687Z,20.30
2019-01-18T11:36:56.438Z,20.30
2019-01-18T11:39:23.715Z,20.30
2019-01-18T11:41:53.404Z,20.30
2019-01-18T11:44:23.171Z,20.30
2019-01-18T11:46:52.944Z,20.40
2019-01-18T11:49:22.619Z,20.30
2019-01-18T11:51:52.389Z,20.20
2019-01-18T11:54:22.187Z,20.20
2019-01-18T11:56:51.912Z,20.20
2019-01-18T11:59:21.609Z,20.20
2019-01-18T12:01:51.424Z,20.20
2019-01-18T12:04:21.099Z,20.20
2019-01-18T12:06:50.726Z,20.20
2019-01-18T12:09:20.534Z,20.30
2019-01-18T12:11:50.127Z,20.30
2019-01-18T12:14:19.939Z,20.40
2019-01-18T12:16:49.623Z,20.40
2019-01-18T12:19:19.288Z,20.40
2019-01-18T12:21:49.081Z,20.40
2019-01-18T12:24:19.226Z,20.40
2019-01-18T12:26:49.240Z,20.00
2019-01-18T12:29:19.173Z,19.80
2019-01-18T12:31:52.777Z,19.60
2019-01-18T12:34:22.630Z,19.60
2019-01-18T12:36:58.969Z,19.50
2019-01-18T12:39:24.599Z,19.50
2019-01-18T12:41:54.844Z,19.40
2019-01-18T12:44:25.388Z,19.30
2019-01-18T12:46:56.489Z,19.40
2019-01-18T12:49:28.255Z,19.40
2019-01-18T12:51:59.836Z,19.40
2019-01-18T12:54:30.330Z,19.40
2019-01-18T12:57:00.299Z,19.40
2019-01-18T12:59:30.119Z,19.40
2019-01-18T13:01:59.896Z,19.40
2019-01-18T13:04:29.748Z,19.40
2019-01-18T13:06:59.357Z,19.40
2019-01-18T13:09:29.252Z,19.40
2019-01-18T13:11:59.024Z,19.40
2019-01-18T13:14:28.735Z,19.40
2019-01-18T13:16:58.530Z,19.50
2019-01-18T13:19:28.191Z,19.50
2019-01-18T13:21:57.963Z,19.60
2019-01-18T13:24:27.827Z,19.70
2019-01-18T13:26:57.643Z,19.80
2019-01-18T13:29:27.270Z,19.70
2019-01-18T13:31:57.571Z,19.80
2019-01-18T13:34:27.513Z,19.90
2019-01-18T13:36:57.468Z,19.90
2019-01-18T13:39:27.353Z,20.00
2019-01-18T13:41:57.292Z,20.10
2019-01-18T13:44:27.148Z,20.20
2019-01-18T13:46:56.909Z,20.30
2019-01-18T13:49:26.904Z,20.50
2019-01-18T13:51:56.821Z,20.50
2019-01-18T13:54:26.741Z,20.70
2019-01-18T13:56:56.450Z,20.80
2019-01-18T13:59:26.220Z,20.90
2019-01-18T14:01:56.037Z,21.10
2019-01-18T14:04:25.725Z,21.20
2019-01-18T14:06:58.517Z,21.20
2019-01-18T14:09:33.457Z,21.30
2019-01-18T14:12:07.091Z,21.60
2019-01-18T14:14:42.045Z,21.70
2019-01-18T14:17:16.564Z,21.70
2019-01-18T14:19:50.130Z,21.80
2019-01-18T14:22:19.905Z,21.90
2019-01-18T14:24:50.388Z,22.00
2019-01-18T14:27:20.631Z,22.20
2019-01-18T14:29:50.798Z,22.40
2019-01-18T14:32:21.428Z,22.80
2019-01-18T14:34:51.685Z,22.90
2019-01-18T14:37:22.195Z,23.10
2019-01-18T14:39:52.494Z,23.30
2019-01-18T14:42:22.972Z,23.50
2019-01-18T14:44:54.661Z,23.80
2019-01-18T14:47:25.134Z,24.00
2019-01-18T14:49:55.612Z,24.20
2019-01-18T14:52:25.857Z,24.40
2019-01-18T14:54:55.801Z,24.60
2019-01-18T14:57:25.660Z,24.90
2019-01-18T14:59:56.377Z,25.10
2019-01-18T15:02:27.231Z,25.30
2019-01-18T15:04:58.596Z,25.50
2019-01-18T15:07:29.559Z,25.90
2019-01-18T15:10:05.007Z,26.10
2019-01-18T15:12:32.715Z,26.30
2019-01-18T15:15:03.470Z,26.60
2019-01-18T15:17:34.744Z,26.90
2019-01-18T15:20:08.109Z,27.10
2019-01-18T15:22:39.078Z,27.30
2019-01-18T15:25:10.171Z,27.60
2019-01-18T15:27:40.796Z,27.70
2019-01-18T15:30:16.902Z,28.00
2019-01-18T15:32:47.478Z,28.10
2019-01-18T15:35:20.948Z,28.20
2019-01-18T15:37:51.698Z,28.40
2019-01-18T15:40:24.367Z,28.70
2019-01-18T15:42:55.897Z,28.70
2019-01-18T15:45:26.813Z,28.90
2019-01-18T15:47:57.752Z,29.10
2019-01-18T15:50:30.676Z,29.20
2019-01-18T15:53:01.574Z,29.40
2019-01-18T15:55:32.932Z,29.60
2019-01-18T15:58:03.877Z,29.70
2019-01-18T16:00:39.945Z,29.80
2019-01-18T16:03:15.794Z,30.10
2019-01-18T16:05:43.798Z,30.10
2019-01-18T16:08:14.745Z,30.10
2019-01-18T16:10:45.665Z,30.40
2019-01-18T16:13:17.063Z,30.40
2019-01-18T16:15:51.120Z,30.10
2019-01-18T16:18:24.716Z,30.60
2019-01-18T16:20:55.278Z,30.70
2019-01-18T16:23:25.715Z,30.80
2019-01-18T16:25:56.449Z,31.00
2019-01-18T16:28:27.157Z,31.00
2019-01-18T16:30:57.893Z,31.10
2019-01-18T16:33:28.415Z,31.10
2019-01-18T16:35:59.587Z,31.40
2019-01-18T16:38:30.368Z,31.40
2019-01-18T16:41:01.438Z,31.70
2019-01-18T16:43:34.240Z,31.70
2019-01-18T16:46:04.903Z,32.00
2019-01-18T16:48:35.092Z,31.90
2019-01-18T16:51:05.931Z,32.00
2019-01-18T16:53:36.930Z,32.00
2019-01-18T16:56:08.112Z,32.00
2019-01-18T16:58:38.341Z,32.60
2019-01-18T17:01:08.583Z,32.60
2019-01-18T17:03:39.350Z,32.60
2019-01-18T17:06:09.822Z,32.80
2019-01-18T17:08:40.299Z,32.80
2019-01-18T17:11:11.051Z,32.90
2019-01-18T17:13:41.655Z,32.90
2019-01-18T17:16:20.011Z,32.90
2019-01-18T17:18:51.252Z,33.10
2019-01-18T17:21:21.629Z,33.10
2019-01-18T17:23:52.192Z,33.10
2019-01-18T17:26:22.495Z,33.20
2019-01-18T17:28:54.480Z,33.20
2019-01-18T17:31:25.148Z,33.10
2019-01-18T17:33:55.316Z,33.20
2019-01-18T17:36:28.066Z,33.40
2019-01-18T17:39:10.244Z,33.40
2019-01-18T17:42:01.436Z,33.40
2019-01-18T17:45:15.736Z,33.50
2019-01-18T17:47:53.713Z,33.50
2019-01-18T17:50:52.251Z,33.70
2019-01-18T17:53:27.696Z,33.50
2019-01-18T17:56:03.299Z,33.50
2019-01-18T17:58:54.337Z,33.70
2019-01-18T18:02:00.656Z,33.70
2019-01-18T18:04:45.322Z,33.70
2019-01-18T18:07:23.772Z,33.70
2019-01-18T18:09:56.586Z,33.80
2019-01-18T18:12:31.985Z,33.70
2019-01-18T18:15:14.208Z,33.70
2019-01-18T18:17:53.016Z,33.70
2019-01-18T18:20:37.728Z,33.80
2019-01-18T18:23:25.512Z,33.80
2019-01-18T18:26:23.629Z,33.70
2019-01-18T18:29:08.481Z,33.80
2019-01-18T18:32:05.212Z,34.00
2019-01-18T18:35:11.385Z,34.00
2019-01-18T18:37:53.260Z,34.00
2019-01-18T18:40:34.778Z,34.10
2019-01-18T18:43:33.257Z,34.20
2019-01-18T18:46:05.979Z,34.20
2019-01-18T18:48:38.807Z,34.20
2019-01-18T18:51:27.867Z,34.20
2019-01-18T18:54:09.649Z,34.10
2019-01-18T18:56:45.671Z,34.20
2019-01-18T18:59:24.067Z,34.20
2019-01-18T19:02:05.536Z,34.20
2019-01-18T19:04:43.718Z,34.40
2019-01-18T19:07:19.211Z,34.20
2019-01-18T19:09:51.883Z,34.20
2019-01-18T19:12:59.492Z,34.20
2019-01-18T19:15:32.352Z,34.20
2019-01-18T19:18:20.188Z,34.40
2019-01-18T19:20:58.899Z,34.20
2019-01-18T19:23:40.540Z,34.40
2019-01-18T19:26:25.445Z,34.40
2019-01-18T19:29:13.439Z,34.50
2019-01-18T19:32:06.208Z,34.50
2019-01-18T19:34:42.162Z,34.50
2019-01-18T19:37:20.469Z,34.70
2019-01-18T19:40:02.082Z,34.70
2019-01-18T19:42:59.241Z,34.50
2019-01-18T19:45:43.960Z,34.70
2019-01-18T19:48:33.068Z,34.70
2019-01-18T19:51:17.787Z,34.70
2019-01-18T19:54:11.555Z,34.70
2019-01-18T19:56:56.386Z,34.70
2019-01-18T19:59:45.449Z,34.70
2019-01-18T20:02:36.337Z,34.70
2019-01-18T20:05:44.053Z,34.80
2019-01-18T20:08:22.803Z,34.80
2019-01-18T20:11:07.674Z,34.80
2019-01-18T20:13:52.308Z,34.80
2019-01-18T20:16:45.662Z,35.00
2019-01-18T20:19:18.513Z,34.80
2019-01-18T20:22:07.859Z,35.00
2019-01-18T20:24:49.581Z,35.00
2019-01-18T20:27:24.909Z,35.00
2019-01-18T20:30:12.633Z,35.00
2019-01-18T20:32:57.237Z,35.00
2019-01-18T20:35:58.929Z,35.00
2019-01-18T20:38:40.661Z,34.80
2019-01-18T20:41:22.268Z,34.80
2019-01-18T20:43:57.670Z,34.70
2019-01-18T20:46:48.343Z,34.80
2019-01-18T20:49:30.032Z,34.70
2019-01-18T20:52:08.673Z,34.50
2019-01-18T20:54:50.142Z,34.40
2019-01-18T20:57:47.288Z,34.50
2019-01-18T21:00:41.332Z,34.70
2019-01-18T21:03:19.718Z,34.50
2019-01-18T21:05:55.150Z,34.50
2019-01-18T21:08:46.003Z,34.40
2019-01-18T21:11:27.757Z,34.70
2019-01-18T21:14:06.834Z,34.50
2019-01-18T21:17:06.976Z,34.50
2019-01-18T21:19:45.660Z,34.40
2019-01-18T21:22:39.577Z,34.40
2019-01-18T21:25:18.683Z,34.50
2019-01-18T21:28:06.311Z,34.50
2019-01-18T21:30:41.979Z,34.50
2019-01-18T21:33:26.303Z,34.70
2019-01-18T21:36:02.338Z,34.70
2019-01-18T21:38:44.126Z,34.40
2019-01-18T21:41:19.742Z,34.50
2019-01-18T21:44:24.501Z,34.70
2019-01-18T21:47:03.093Z,34.50
2019-01-18T21:49:35.793Z,34.50
2019-01-18T21:52:29.610Z,34.40
2019-01-18T21:55:08.099Z,34.50
2019-01-18T21:57:49.674Z,34.50
2019-01-18T22:00:34.539Z,34.70
2019-01-18T22:03:25.069Z,34.70
2019-01-18T22:06:03.296Z,34.50
2019-01-18T22:08:44.733Z,34.70
2019-01-18T22:11:32.781Z,34.50
2019-01-18T22:14:26.433Z,34.50
2019-01-18T22:17:17.417Z,34.40
2019-01-18T22:20:02.667Z,34.50
2019-01-18T22:22:47.548Z,34.20
2019-01-18T22:25:53.669Z,34.40
2019-01-18T22:28:32.186Z,34.20
2019-01-18T22:31:21.753Z,34.20
2019-01-18T22:34:10.131Z,34.40
2019-01-18T22:37:05.525Z,34.70
2019-01-18T22:39:57.910Z,56.60
2019-01-18T22:42:36.692Z,53.80
2019-01-18T22:45:18.379Z,47.10
2019-01-18T22:48:20.355Z,40.60
2019-01-18T22:51:02.556Z,39.60
2019-01-18T22:53:36.146Z,38.70
2019-01-18T22:56:15.694Z,41.00
2019-01-18T22:58:56.478Z,38.70
2019-01-18T23:01:51.536Z,37.90
2019-01-18T23:04:30.072Z,36.30
2019-01-18T23:07:20.863Z,35.90
2019-01-18T23:10:09.044Z,36.20
2019-01-18T23:12:44.466Z,35.10
2019-01-18T23:15:49.092Z,34.70
2019-01-18T23:18:24.634Z,34.70
2019-01-18T23:21:05.965Z,33.70
2019-01-18T23:23:55.018Z,32.80
2019-01-18T23:26:30.356Z,34.00
2019-01-18T23:29:08.738Z,34.00
2019-01-18T23:32:04.142Z,33.70
2019-01-18T23:34:36.889Z,33.70
2019-01-18T23:37:12.129Z,32.80
2019-01-18T23:39:53.801Z,33.10
2019-01-18T23:42:35.455Z,32.80
2019-01-18T23:45:24.628Z,31.70
2019-01-18T23:48:03.218Z,32.20
2019-01-18T23:50:48.070Z,32.30
2019-01-18T23:53:44.138Z,32.80
2019-01-18T23:56:14.608Z,32.60
2019-01-18T23:58:58.762Z,32.80
